Airfield :
LOGIN :

Register | Disclaimer

   EN    FR    IT 

 










Legend :    VFR   Marginal VFR   IFR   Intensive IFR   Very Intensive IFR
Visi :
Ceiling :
>= 8 km
>= 3000ft
5 to 8 km
1000 to 3000 ft
1500m to 5 km
500 to 1000 ft
800 to 1500m
200 to 500 ft
< 800m
< 200 ft
Symbols :   Thunderstorms  Fog  Heavy snow  Heavy precipitations  Wind > 20 kt
SIGMETs :     Misc.  Thunderstorms  Icing  Turbulence  Mountain Waves  Volcanic Ashes







- Airport Elevation : 446 ft
- IATA code : VNE
- Download approach charts


LFRV - Vannes-Meucon

CURRENT METAR :
  • 231400Z AUTO VRB03KT 9999 FEW025 SCT032 BKN038 10/03 Q1008

EXPIRED METARs :
  • 231330Z AUTO VRB02KT 9999 SCT024 SCT037 BKN140 10/04 Q1008
  • 231300Z AUTO 09004KT 050V130 9999 BKN025 BKN038 BKN120 09/04 Q1008
  • 231230Z AUTO 06005KT 020V110 9999 FEW026 SCT034 BKN110 09/03 Q1008
  • 231200Z AUTO 08008KT 050V110 9999 FEW020 SCT029 OVC110 08/04 Q1008
  • 231130Z AUTO 06008KT 9999 BKN019 OVC110 08/04 Q1008

TAF N/A
No reported NOTAMs for that airfield.



MET'MAP, your aeronautical weather chart ! - Copyright ORBIFLY December 2007 - Disclaimer

ORBIFLY MET'MAP TEAM :

Programming & Development : Alexandra Zaïnal
Concept & Development : Baudouin d'Aumeries
Co-Development & Prog : Marc-Olivier Méhu
Technical & hardware support : Manuel Goepfert

Contact : metmap@orbifly.com




SOURCES & CREDITS :

   NOAA